sensor_id;sensor_type;location;lat;lon;timestamp;P1;durP1;ratioP1;P2;durP2;ratioP2
75885;SDS011;64561;44.018;10.144;2023-05-16T00:01:57;2.15;;;1.58;;
75885;SDS011;64561;44.018;10.144;2023-05-16T00:04:24;2.63;;;1.60;;
75885;SDS011;64561;44.018;10.144;2023-05-16T00:06:51;4.40;;;1.60;;
75885;SDS011;64561;44.018;10.144;2023-05-16T00:09:18;4.10;;;1.73;;
75885;SDS011;64561;44.018;10.144;2023-05-16T00:11:46;4.88;;;1.80;;
75885;SDS011;64561;44.018;10.144;2023-05-16T00:14:13;5.00;;;1.60;;
75885;SDS011;64561;44.018;10.144;2023-05-16T00:16:40;2.58;;;1.55;;
75885;SDS011;64561;44.018;10.144;2023-05-16T00:19:07;3.00;;;1.33;;
75885;SDS011;64561;44.018;10.144;2023-05-16T00:21:35;1.65;;;1.50;;
75885;SDS011;64561;44.018;10.144;2023-05-16T00:24:02;3.40;;;1.77;;
75885;SDS011;64561;44.018;10.144;2023-05-16T00:26:30;3.55;;;1.70;;
75885;SDS011;64561;44.018;10.144;2023-05-16T00:28:57;3.40;;;1.80;;
75885;SDS011;64561;44.018;10.144;2023-05-16T00:31:24;2.50;;;1.63;;
75885;SDS011;64561;44.018;10.144;2023-05-16T00:33:51;3.85;;;2.00;;
75885;SDS011;64561;44.018;10.144;2023-05-16T00:36:18;2.60;;;1.58;;
75885;SDS011;64561;44.018;10.144;2023-05-16T00:38:48;4.05;;;2.03;;
75885;SDS011;64561;44.018;10.144;2023-05-16T00:41:15;4.03;;;1.70;;
75885;SDS011;64561;44.018;10.144;2023-05-16T00:43:42;2.63;;;1.60;;
75885;SDS011;64561;44.018;10.144;2023-05-16T00:46:10;3.90;;;1.77;;
75885;SDS011;64561;44.018;10.144;2023-05-16T00:48:37;3.92;;;2.00;;
75885;SDS011;64561;44.018;10.144;2023-05-16T00:51:05;2.33;;;1.63;;
75885;SDS011;64561;44.018;10.144;2023-05-16T00:53:35;2.38;;;1.80;;
75885;SDS011;64561;44.018;10.144;2023-05-16T00:56:02;2.13;;;1.52;;
75885;SDS011;64561;44.018;10.144;2023-05-16T00:58:31;1.85;;;1.48;;
75885;SDS011;64561;44.018;10.144;2023-05-16T01:00:59;1.58;;;1.48;;
75885;SDS011;64561;44.018;10.144;2023-05-16T01:03:29;4.20;;;1.60;;
75885;SDS011;64561;44.018;10.144;2023-05-16T01:05:58;2.13;;;1.30;;
75885;SDS011;64561;44.018;10.144;2023-05-16T01:08:25;2.42;;;1.25;;
75885;SDS011;64561;44.018;10.144;2023-05-16T01:16:42;1.88;;;1.40;;
75885;SDS011;64561;44.018;10.144;2023-05-16T01:19:27;1.75;;;1.48;;
75885;SDS011;64561;44.018;10.144;2023-05-16T01:22:10;3.40;;;1.60;;
75885;SDS011;64561;44.018;10.144;2023-05-16T01:27:47;1.90;;;1.50;;
75885;SDS011;64561;44.018;10.144;2023-05-16T01:30:18;1.80;;;1.40;;
75885;SDS011;64561;44.018;10.144;2023-05-16T01:32:45;2.53;;;1.55;;
75885;SDS011;64561;44.018;10.144;2023-05-16T01:35:13;1.80;;;1.40;;
75885;SDS011;64561;44.018;10.144;2023-05-16T01:43:20;2.03;;;1.42;;
75885;SDS011;64561;44.018;10.144;2023-05-16T01:46:01;1.70;;;1.25;;
75885;SDS011;64561;44.018;10.144;2023-05-16T01:48:57;2.13;;;1.40;;
75885;SDS011;64561;44.018;10.144;2023-05-16T01:51:29;1.83;;;1.25;;
75885;SDS011;64561;44.018;10.144;2023-05-16T01:54:02;5.47;;;1.30;;
75885;SDS011;64561;44.018;10.144;2023-05-16T01:56:32;1.67;;;1.13;;
75885;SDS011;64561;44.018;10.144;2023-05-16T01:58:59;1.38;;;1.08;;
75885;SDS011;64561;44.018;10.144;2023-05-16T02:01:30;2.50;;;1.65;;
75885;SDS011;64561;44.018;10.144;2023-05-16T02:03:58;1.60;;;1.13;;
75885;SDS011;64561;44.018;10.144;2023-05-16T02:06:25;1.67;;;1.17;;
75885;SDS011;64561;44.018;10.144;2023-05-16T02:08:53;1.60;;;1.08;;
75885;SDS011;64561;44.018;10.144;2023-05-16T02:11:19;2.83;;;1.30;;
75885;SDS011;64561;44.018;10.144;2023-05-16T02:13:47;1.50;;;1.30;;
75885;SDS011;64561;44.018;10.144;2023-05-16T02:16:14;3.42;;;1.20;;
75885;SDS011;64561;44.018;10.144;2023-05-16T02:18:41;1.70;;;1.35;;
75885;SDS011;64561;44.018;10.144;2023-05-16T02:21:08;2.97;;;1.38;;
75885;SDS011;64561;44.018;10.144;2023-05-16T02:23:34;2.22;;;1.30;;
75885;SDS011;64561;44.018;10.144;2023-05-16T02:26:01;3.47;;;1.40;;
75885;SDS011;64561;44.018;10.144;2023-05-16T02:28:28;3.35;;;1.55;;
75885;SDS011;64561;44.018;10.144;2023-05-16T02:30:56;2.88;;;1.50;;
75885;SDS011;64561;44.018;10.144;2023-05-16T02:33:24;2.20;;;1.40;;
75885;SDS011;64561;44.018;10.144;2023-05-16T02:35:52;1.73;;;1.30;;
75885;SDS011;64561;44.018;10.144;2023-05-16T02:38:19;1.88;;;1.35;;
75885;SDS011;64561;44.018;10.144;2023-05-16T02:40:47;2.20;;;1.20;;
75885;SDS011;64561;44.018;10.144;2023-05-16T02:43:14;2.08;;;1.30;;
75885;SDS011;64561;44.018;10.144;2023-05-16T02:45:41;1.80;;;1.15;;
75885;SDS011;64561;44.018;10.144;2023-05-16T02:48:08;2.45;;;1.40;;
75885;SDS011;64561;44.018;10.144;2023-05-16T02:50:35;1.10;;;1.00;;
75885;SDS011;64561;44.018;10.144;2023-05-16T02:53:03;1.67;;;1.10;;
75885;SDS011;64561;44.018;10.144;2023-05-16T02:55:30;1.85;;;1.45;;
75885;SDS011;64561;44.018;10.144;2023-05-16T02:57:56;1.63;;;1.30;;
75885;SDS011;64561;44.018;10.144;2023-05-16T03:00:23;1.25;;;1.00;;
75885;SDS011;64561;44.018;10.144;2023-05-16T03:02:50;2.75;;;1.10;;
75885;SDS011;64561;44.018;10.144;2023-05-16T03:05:17;0.85;;;0.77;;
75885;SDS011;64561;44.018;10.144;2023-05-16T03:07:44;1.27;;;0.90;;
75885;SDS011;64561;44.018;10.144;2023-05-16T03:10:11;1.50;;;0.90;;
75885;SDS011;64561;44.018;10.144;2023-05-16T03:12:38;1.38;;;0.88;;
75885;SDS011;64561;44.018;10.144;2023-05-16T03:15:05;1.00;;;0.90;;
75885;SDS011;64561;44.018;10.144;2023-05-16T03:17:34;1.50;;;1.00;;
75885;SDS011;64561;44.018;10.144;2023-05-16T03:20:02;1.83;;;1.38;;
75885;SDS011;64561;44.018;10.144;2023-05-16T03:22:29;2.33;;;1.40;;
75885;SDS011;64561;44.018;10.144;2023-05-16T03:24:56;1.13;;;0.98;;
75885;SDS011;64561;44.018;10.144;2023-05-16T03:27:23;2.22;;;1.00;;
75885;SDS011;64561;44.018;10.144;2023-05-16T03:29:52;1.17;;;0.98;;
75885;SDS011;64561;44.018;10.144;2023-05-16T03:32:19;1.40;;;1.20;;
75885;SDS011;64561;44.018;10.144;2023-05-16T03:34:46;2.88;;;1.25;;
75885;SDS011;64561;44.018;10.144;2023-05-16T03:37:12;3.33;;;1.83;;
75885;SDS011;64561;44.018;10.144;2023-05-16T03:39:41;2.08;;;1.23;;
75885;SDS011;64561;44.018;10.144;2023-05-16T03:42:08;4.13;;;2.50;;
75885;SDS011;64561;44.018;10.144;2023-05-16T03:44:35;3.97;;;2.28;;
75885;SDS011;64561;44.018;10.144;2023-05-16T03:47:02;3.55;;;1.50;;
75885;SDS011;64561;44.018;10.144;2023-05-16T03:49:29;3.08;;;2.00;;
75885;SDS011;64561;44.018;10.144;2023-05-16T03:51:56;3.53;;;1.40;;
75885;SDS011;64561;44.018;10.144;2023-05-16T03:54:23;1.83;;;1.40;;
75885;SDS011;64561;44.018;10.144;2023-05-16T03:56:49;3.17;;;1.90;;
75885;SDS011;64561;44.018;10.144;2023-05-16T03:59:16;2.83;;;1.50;;
75885;SDS011;64561;44.018;10.144;2023-05-16T04:01:43;2.85;;;1.67;;
75885;SDS011;64561;44.018;10.144;2023-05-16T04:04:10;4.38;;;1.80;;
75885;SDS011;64561;44.018;10.144;2023-05-16T04:06:36;2.10;;;1.30;;
75885;SDS011;64561;44.018;10.144;2023-05-16T04:09:04;1.90;;;1.02;;
75885;SDS011;64561;44.018;10.144;2023-05-16T04:11:31;2.63;;;1.30;;
75885;SDS011;64561;44.018;10.144;2023-05-16T04:13:59;3.13;;;1.60;;
75885;SDS011;64561;44.018;10.144;2023-05-16T04:16:27;1.70;;;1.10;;
75885;SDS011;64561;44.018;10.144;2023-05-16T04:18:54;0.75;;;0.75;;
75885;SDS011;64561;44.018;10.144;2023-05-16T04:21:21;1.73;;;1.25;;
75885;SDS011;64561;44.018;10.144;2023-05-16T04:23:48;2.38;;;1.20;;
75885;SDS011;64561;44.018;10.144;2023-05-16T04:26:15;1.85;;;1.20;;
75885;SDS011;64561;44.018;10.144;2023-05-16T04:28:42;1.75;;;1.17;;
75885;SDS011;64561;44.018;10.144;2023-05-16T04:31:09;2.65;;;1.23;;
75885;SDS011;64561;44.018;10.144;2023-05-16T04:33:36;1.40;;;1.08;;
75885;SDS011;64561;44.018;10.144;2023-05-16T04:36:03;2.75;;;1.20;;
75885;SDS011;64561;44.018;10.144;2023-05-16T04:38:31;1.55;;;1.02;;
75885;SDS011;64561;44.018;10.144;2023-05-16T04:40:58;1.65;;;1.10;;
75885;SDS011;64561;44.018;10.144;2023-05-16T04:43:24;1.63;;;1.10;;
75885;SDS011;64561;44.018;10.144;2023-05-16T04:45:51;1.45;;;1.02;;
75885;SDS011;64561;44.018;10.144;2023-05-16T04:48:19;2.67;;;1.17;;
75885;SDS011;64561;44.018;10.144;2023-05-16T04:50:46;1.90;;;1.05;;
75885;SDS011;64561;44.018;10.144;2023-05-16T04:53:13;2.22;;;1.20;;
75885;SDS011;64561;44.018;10.144;2023-05-16T04:55:40;1.40;;;1.00;;
75885;SDS011;64561;44.018;10.144;2023-05-16T04:58:07;2.83;;;1.30;;
75885;SDS011;64561;44.018;10.144;2023-05-16T05:00:34;1.60;;;0.88;;
75885;SDS011;64561;44.018;10.144;2023-05-16T05:03:01;1.35;;;1.00;;
75885;SDS011;64561;44.018;10.144;2023-05-16T05:05:28;1.33;;;1.00;;
75885;SDS011;64561;44.018;10.144;2023-05-16T05:07:56;1.48;;;1.00;;
75885;SDS011;64561;44.018;10.144;2023-05-16T05:10:23;1.42;;;1.10;;
75885;SDS011;64561;44.018;10.144;2023-05-16T05:12:50;1.50;;;1.10;;
75885;SDS011;64561;44.018;10.144;2023-05-16T05:15:17;1.88;;;0.90;;
75885;SDS011;64561;44.018;10.144;2023-05-16T05:17:44;0.50;;;0.50;;
75885;SDS011;64561;44.018;10.144;2023-05-16T05:20:11;0.80;;;0.70;;
75885;SDS011;64561;44.018;10.144;2023-05-16T05:22:38;0.70;;;0.60;;
75885;SDS011;64561;44.018;10.144;2023-05-16T05:25:05;1.77;;;0.80;;
75885;SDS011;64561;44.018;10.144;2023-05-16T05:27:32;0.35;;;0.30;;
75885;SDS011;64561;44.018;10.144;2023-05-16T05:29:58;0.40;;;0.40;;
75885;SDS011;64561;44.018;10.144;2023-05-16T05:32:25;1.10;;;0.38;;
75885;SDS011;64561;44.018;10.144;2023-05-16T05:34:52;0.93;;;0.60;;
75885;SDS011;64561;44.018;10.144;2023-05-16T05:37:19;0.75;;;0.40;;
75885;SDS011;64561;44.018;10.144;2023-05-16T05:39:46;1.55;;;0.32;;
75885;SDS011;64561;44.018;10.144;2023-05-16T05:42:13;0.38;;;0.32;;
75885;SDS011;64561;44.018;10.144;2023-05-16T05:44:39;1.67;;;0.40;;
75885;SDS011;64561;44.018;10.144;2023-05-16T05:47:06;0.47;;;0.45;;
75885;SDS011;64561;44.018;10.144;2023-05-16T05:49:33;0.25;;;0.25;;
75885;SDS011;64561;44.018;10.144;2023-05-16T05:52:01;0.57;;;0.28;;
75885;SDS011;64561;44.018;10.144;2023-05-16T05:54:28;0.20;;;0.17;;
75885;SDS011;64561;44.018;10.144;2023-05-16T05:56:58;0.45;;;0.43;;
75885;SDS011;64561;44.018;10.144;2023-05-16T05:59:25;0.25;;;0.25;;
75885;SDS011;64561;44.018;10.144;2023-05-16T06:01:52;1.58;;;0.50;;
75885;SDS011;64561;44.018;10.144;2023-05-16T06:04:19;0.70;;;0.57;;
75885;SDS011;64561;44.018;10.144;2023-05-16T06:06:49;0.55;;;0.50;;
75885;SDS011;64561;44.018;10.144;2023-05-16T06:09:16;0.98;;;0.57;;
75885;SDS011;64561;44.018;10.144;2023-05-16T06:11:43;1.33;;;0.93;;
75885;SDS011;64561;44.018;10.144;2023-05-16T06:14:11;1.65;;;0.70;;
75885;SDS011;64561;44.018;10.144;2023-05-16T06:16:39;0.63;;;0.60;;
75885;SDS011;64561;44.018;10.144;2023-05-16T06:19:06;1.35;;;0.40;;
75885;SDS011;64561;44.018;10.144;2023-05-16T06:21:33;1.25;;;0.40;;
75885;SDS011;64561;44.018;10.144;2023-05-16T06:24:00;3.20;;;0.50;;
75885;SDS011;64561;44.018;10.144;2023-05-16T06:26:27;0.40;;;0.22;;
75885;SDS011;64561;44.018;10.144;2023-05-16T06:28:54;0.30;;;0.15;;
75885;SDS011;64561;44.018;10.144;2023-05-16T06:31:21;1.45;;;0.20;;
75885;SDS011;64561;44.018;10.144;2023-05-16T06:33:48;0.17;;;0.10;;
75885;SDS011;64561;44.018;10.144;2023-05-16T06:36:15;0.20;;;0.10;;
75885;SDS011;64561;44.018;10.144;2023-05-16T06:38:41;0.30;;;0.20;;
75885;SDS011;64561;44.018;10.144;2023-05-16T06:41:08;0.10;;;0.10;;
75885;SDS011;64561;44.018;10.144;2023-05-16T06:43:35;0.13;;;0.00;;
75885;SDS011;64561;44.018;10.144;2023-05-16T06:46:02;0.30;;;0.20;;
75885;SDS011;64561;44.018;10.144;2023-05-16T06:48:29;0.93;;;0.28;;
75885;SDS011;64561;44.018;10.144;2023-05-16T06:50:56;0.88;;;0.50;;
75885;SDS011;64561;44.018;10.144;2023-05-16T06:53:23;0.30;;;0.20;;
75885;SDS011;64561;44.018;10.144;2023-05-16T06:55:49;1.80;;;0.90;;
75885;SDS011;64561;44.018;10.144;2023-05-16T06:58:16;2.63;;;0.73;;
75885;SDS011;64561;44.018;10.144;2023-05-16T07:00:43;2.25;;;0.70;;
75885;SDS011;64561;44.018;10.144;2023-05-16T07:03:10;1.65;;;0.98;;
75885;SDS011;64561;44.018;10.144;2023-05-16T07:05:37;0.80;;;0.28;;
75885;SDS011;64561;44.018;10.144;2023-05-16T07:08:04;0.75;;;0.38;;
75885;SDS011;64561;44.018;10.144;2023-05-16T07:10:33;1.83;;;0.75;;
75885;SDS011;64561;44.018;10.144;2023-05-16T07:13:00;1.13;;;0.50;;
75885;SDS011;64561;44.018;10.144;2023-05-16T07:15:27;2.45;;;0.60;;
75885;SDS011;64561;44.018;10.144;2023-05-16T07:17:54;1.05;;;0.50;;
75885;SDS011;64561;44.018;10.144;2023-05-16T07:20:21;1.13;;;0.45;;
75885;SDS011;64561;44.018;10.144;2023-05-16T07:22:48;0.40;;;0.28;;
75885;SDS011;64561;44.018;10.144;2023-05-16T07:25:18;0.52;;;0.38;;
75885;SDS011;64561;44.018;10.144;2023-05-16T07:27:44;1.80;;;0.57;;
75885;SDS011;64561;44.018;10.144;2023-05-16T07:30:11;3.40;;;0.38;;
75885;SDS011;64561;44.018;10.144;2023-05-16T07:32:39;0.25;;;0.20;;
75885;SDS011;64561;44.018;10.144;2023-05-16T07:35:08;0.45;;;0.30;;
75885;SDS011;64561;44.018;10.144;2023-05-16T07:37:36;0.35;;;0.28;;
75885;SDS011;64561;44.018;10.144;2023-05-16T07:40:03;2.80;;;1.17;;
75885;SDS011;64561;44.018;10.144;2023-05-16T07:42:30;0.28;;;0.20;;
75885;SDS011;64561;44.018;10.144;2023-05-16T07:44:57;0.50;;;0.25;;
75885;SDS011;64561;44.018;10.144;2023-05-16T07:47:24;1.98;;;0.22;;
75885;SDS011;64561;44.018;10.144;2023-05-16T07:49:51;0.40;;;0.40;;
75885;SDS011;64561;44.018;10.144;2023-05-16T07:52:18;0.88;;;0.55;;
75885;SDS011;64561;44.018;10.144;2023-05-16T07:54:45;1.63;;;0.60;;
75885;SDS011;64561;44.018;10.144;2023-05-16T07:57:13;1.08;;;0.60;;
75885;SDS011;64561;44.018;10.144;2023-05-16T07:59:41;0.70;;;0.20;;
75885;SDS011;64561;44.018;10.144;2023-05-16T08:02:09;0.22;;;0.22;;
75885;SDS011;64561;44.018;10.144;2023-05-16T08:04:36;0.47;;;0.08;;
75885;SDS011;64561;44.018;10.144;2023-05-16T08:07:04;0.45;;;0.30;;
75885;SDS011;64561;44.018;10.144;2023-05-16T08:09:31;1.85;;;0.50;;
75885;SDS011;64561;44.018;10.144;2023-05-16T08:11:58;0.63;;;0.50;;
75885;SDS011;64561;44.018;10.144;2023-05-16T08:14:29;1.55;;;0.57;;
75885;SDS011;64561;44.018;10.144;2023-05-16T08:16:58;1.45;;;0.45;;
75885;SDS011;64561;44.018;10.144;2023-05-16T08:19:25;1.10;;;0.50;;
75885;SDS011;64561;44.018;10.144;2023-05-16T08:21:53;1.58;;;0.30;;
75885;SDS011;64561;44.018;10.144;2023-05-16T08:24:20;0.47;;;0.20;;
75885;SDS011;64561;44.018;10.144;2023-05-16T08:26:47;0.30;;;0.20;;
75885;SDS011;64561;44.018;10.144;2023-05-16T08:29:14;1.02;;;0.30;;
75885;SDS011;64561;44.018;10.144;2023-05-16T08:31:41;1.40;;;0.70;;
75885;SDS011;64561;44.018;10.144;2023-05-16T08:34:08;1.10;;;0.82;;
75885;SDS011;64561;44.018;10.144;2023-05-16T08:36:36;0.93;;;0.60;;
75885;SDS011;64561;44.018;10.144;2023-05-16T08:39:03;0.95;;;0.68;;
75885;SDS011;64561;44.018;10.144;2023-05-16T08:41:30;2.83;;;0.93;;
75885;SDS011;64561;44.018;10.144;2023-05-16T08:43:57;3.28;;;1.20;;
75885;SDS011;64561;44.018;10.144;2023-05-16T08:46:24;2.17;;;1.10;;
75885;SDS011;64561;44.018;10.144;2023-05-16T08:48:54;1.05;;;0.50;;
75885;SDS011;64561;44.018;10.144;2023-05-16T08:51:24;1.63;;;0.95;;
75885;SDS011;64561;44.018;10.144;2023-05-16T08:53:56;2.58;;;0.75;;
75885;SDS011;64561;44.018;10.144;2023-05-16T08:56:26;1.85;;;0.70;;
75885;SDS011;64561;44.018;10.144;2023-05-16T08:58:54;1.70;;;0.80;;
75885;SDS011;64561;44.018;10.144;2023-05-16T09:01:23;5.60;;;4.22;;
75885;SDS011;64561;44.018;10.144;2023-05-16T09:03:50;4.53;;;1.55;;
75885;SDS011;64561;44.018;10.144;2023-05-16T09:06:18;3.28;;;1.60;;
75885;SDS011;64561;44.018;10.144;2023-05-16T09:08:45;0.40;;;0.30;;
75885;SDS011;64561;44.018;10.144;2023-05-16T09:11:13;1.08;;;0.55;;
75885;SDS011;64561;44.018;10.144;2023-05-16T09:13:40;1.50;;;0.75;;
75885;SDS011;64561;44.018;10.144;2023-05-16T09:16:07;4.32;;;0.50;;
75885;SDS011;64561;44.018;10.144;2023-05-16T09:18:35;1.20;;;0.65;;
75885;SDS011;64561;44.018;10.144;2023-05-16T09:21:03;1.38;;;0.40;;
75885;SDS011;64561;44.018;10.144;2023-05-16T09:23:33;1.25;;;0.45;;
75885;SDS011;64561;44.018;10.144;2023-05-16T09:26:04;1.15;;;0.55;;
75885;SDS011;64561;44.018;10.144;2023-05-16T09:28:33;0.20;;;0.10;;
75885;SDS011;64561;44.018;10.144;2023-05-16T09:31:05;0.60;;;0.08;;
75885;SDS011;64561;44.018;10.144;2023-05-16T09:33:46;0.00;;;0.00;;
75885;SDS011;64561;44.018;10.144;2023-05-16T09:36:14;0.00;;;0.00;;
75885;SDS011;64561;44.018;10.144;2023-05-16T09:38:42;0.10;;;0.10;;
75885;SDS011;64561;44.018;10.144;2023-05-16T09:41:09;0.28;;;0.28;;
75885;SDS011;64561;44.018;10.144;2023-05-16T09:43:39;1.25;;;0.40;;
75885;SDS011;64561;44.018;10.144;2023-05-16T09:46:12;0.08;;;0.08;;
75885;SDS011;64561;44.018;10.144;2023-05-16T09:48:43;0.28;;;0.08;;
75885;SDS011;64561;44.018;10.144;2023-05-16T09:51:13;0.15;;;0.10;;
75885;SDS011;64561;44.018;10.144;2023-05-16T09:53:40;0.00;;;0.00;;
75885;SDS011;64561;44.018;10.144;2023-05-16T09:56:09;0.20;;;0.10;;
75885;SDS011;64561;44.018;10.144;2023-05-16T09:58:37;1.05;;;0.20;;
75885;SDS011;64561;44.018;10.144;2023-05-16T10:01:06;1.75;;;0.30;;
75885;SDS011;64561;44.018;10.144;2023-05-16T10:03:34;0.10;;;0.10;;
75885;SDS011;64561;44.018;10.144;2023-05-16T10:06:03;1.45;;;0.30;;
75885;SDS011;64561;44.018;10.144;2023-05-16T10:08:32;0.22;;;0.10;;
75885;SDS011;64561;44.018;10.144;2023-05-16T10:11:02;0.75;;;0.35;;
75885;SDS011;64561;44.018;10.144;2023-05-16T10:13:31;2.08;;;0.63;;
75885;SDS011;64561;44.018;10.144;2023-05-16T10:16:01;1.13;;;0.38;;
75885;SDS011;64561;44.018;10.144;2023-05-16T10:18:33;0.45;;;0.25;;
75885;SDS011;64561;44.018;10.144;2023-05-16T10:21:03;0.28;;;0.20;;
75885;SDS011;64561;44.018;10.144;2023-05-16T10:23:37;0.63;;;0.32;;
75885;SDS011;64561;44.018;10.144;2023-05-16T10:26:08;1.55;;;0.55;;
75885;SDS011;64561;44.018;10.144;2023-05-16T10:28:39;0.28;;;0.20;;
75885;SDS011;64561;44.018;10.144;2023-05-16T10:31:07;0.95;;;0.50;;
75885;SDS011;64561;44.018;10.144;2023-05-16T10:33:37;2.33;;;0.57;;
75885;SDS011;64561;44.018;10.144;2023-05-16T10:36:05;1.65;;;0.50;;
75885;SDS011;64561;44.018;10.144;2023-05-16T10:38:33;1.27;;;0.73;;
75885;SDS011;64561;44.018;10.144;2023-05-16T10:41:01;1.60;;;0.63;;
75885;SDS011;64561;44.018;10.144;2023-05-16T10:43:29;1.05;;;0.47;;
75885;SDS011;64561;44.018;10.144;2023-05-16T10:45:58;1.13;;;0.60;;
75885;SDS011;64561;44.018;10.144;2023-05-16T10:48:37;0.65;;;0.30;;
75885;SDS011;64561;44.018;10.144;2023-05-16T10:54:04;1.15;;;0.75;;
75885;SDS011;64561;44.018;10.144;2023-05-16T10:56:35;0.40;;;0.40;;
75885;SDS011;64561;44.018;10.144;2023-05-16T10:59:02;0.50;;;0.50;;
75885;SDS011;64561;44.018;10.144;2023-05-16T11:01:33;2.53;;;0.55;;
75885;SDS011;64561;44.018;10.144;2023-05-16T11:04:05;0.52;;;0.52;;
75885;SDS011;64561;44.018;10.144;2023-05-16T11:06:34;0.75;;;0.40;;
75885;SDS011;64561;44.018;10.144;2023-05-16T11:09:16;2.85;;;0.47;;
75885;SDS011;64561;44.018;10.144;2023-05-16T11:11:57;0.68;;;0.52;;
75885;SDS011;64561;44.018;10.144;2023-05-16T11:17:06;1.58;;;0.70;;
75885;SDS011;64561;44.018;10.144;2023-05-16T11:19:46;1.67;;;0.70;;
75885;SDS011;64561;44.018;10.144;2023-05-16T11:24:58;1.85;;;0.70;;
75885;SDS011;64561;44.018;10.144;2023-05-16T11:27:29;0.98;;;0.50;;
75885;SDS011;64561;44.018;10.144;2023-05-16T11:30:00;2.58;;;0.80;;
75885;SDS011;64561;44.018;10.144;2023-05-16T11:32:38;1.65;;;0.57;;
75885;SDS011;64561;44.018;10.144;2023-05-16T11:35:08;1.50;;;0.90;;
75885;SDS011;64561;44.018;10.144;2023-05-16T11:37:40;1.33;;;0.40;;
75885;SDS011;64561;44.018;10.144;2023-05-16T11:40:08;4.30;;;1.05;;
75885;SDS011;64561;44.018;10.144;2023-05-16T11:42:38;2.85;;;1.27;;
75885;SDS011;64561;44.018;10.144;2023-05-16T11:45:08;1.08;;;0.70;;
75885;SDS011;64561;44.018;10.144;2023-05-16T11:47:35;1.10;;;0.60;;
75885;SDS011;64561;44.018;10.144;2023-05-16T11:50:13;0.63;;;0.43;;
75885;SDS011;64561;44.018;10.144;2023-05-16T11:52:45;0.95;;;0.52;;
75885;SDS011;64561;44.018;10.144;2023-05-16T11:55:14;0.40;;;0.30;;
75885;SDS011;64561;44.018;10.144;2023-05-16T11:58:03;0.45;;;0.40;;
75885;SDS011;64561;44.018;10.144;2023-05-16T12:00:31;0.65;;;0.30;;
75885;SDS011;64561;44.018;10.144;2023-05-16T12:03:02;2.60;;;0.60;;
75885;SDS011;64561;44.018;10.144;2023-05-16T12:05:30;0.88;;;0.47;;
75885;SDS011;64561;44.018;10.144;2023-05-16T12:07:59;0.95;;;0.50;;
75885;SDS011;64561;44.018;10.144;2023-05-16T12:10:26;0.85;;;0.47;;
75885;SDS011;64561;44.018;10.144;2023-05-16T12:12:53;0.73;;;0.50;;
75885;SDS011;64561;44.018;10.144;2023-05-16T12:15:20;0.35;;;0.35;;
75885;SDS011;64561;44.018;10.144;2023-05-16T12:17:48;1.48;;;0.57;;
75885;SDS011;64561;44.018;10.144;2023-05-16T12:20:16;0.70;;;0.45;;
75885;SDS011;64561;44.018;10.144;2023-05-16T12:22:44;0.50;;;0.40;;
75885;SDS011;64561;44.018;10.144;2023-05-16T12:27:48;0.30;;;0.20;;
75885;SDS011;64561;44.018;10.144;2023-05-16T12:30:18;1.85;;;0.38;;
75885;SDS011;64561;44.018;10.144;2023-05-16T12:32:57;0.35;;;0.30;;
75885;SDS011;64561;44.018;10.144;2023-05-16T12:35:29;0.25;;;0.25;;
75885;SDS011;64561;44.018;10.144;2023-05-16T12:37:57;1.25;;;0.60;;
75885;SDS011;64561;44.018;10.144;2023-05-16T12:40:28;1.13;;;0.35;;
75885;SDS011;64561;44.018;10.144;2023-05-16T12:45:24;0.73;;;0.20;;
75885;SDS011;64561;44.018;10.144;2023-05-16T12:47:53;1.45;;;0.50;;
75885;SDS011;64561;44.018;10.144;2023-05-16T12:50:20;0.28;;;0.20;;
75885;SDS011;64561;44.018;10.144;2023-05-16T12:52:49;3.13;;;0.40;;
75885;SDS011;64561;44.018;10.144;2023-05-16T12:55:17;0.52;;;0.20;;
75885;SDS011;64561;44.018;10.144;2023-05-16T12:57:45;0.32;;;0.20;;
75885;SDS011;64561;44.018;10.144;2023-05-16T13:00:13;0.43;;;0.32;;
75885;SDS011;64561;44.018;10.144;2023-05-16T13:02:44;0.73;;;0.25;;
75885;SDS011;64561;44.018;10.144;2023-05-16T13:05:13;0.38;;;0.20;;
75885;SDS011;64561;44.018;10.144;2023-05-16T13:07:40;1.50;;;0.25;;
75885;SDS011;64561;44.018;10.144;2023-05-16T13:10:07;0.22;;;0.20;;
75885;SDS011;64561;44.018;10.144;2023-05-16T13:12:39;0.20;;;0.20;;
75885;SDS011;64561;44.018;10.144;2023-05-16T13:15:07;0.17;;;0.15;;
75885;SDS011;64561;44.018;10.144;2023-05-16T13:17:39;0.20;;;0.10;;
75885;SDS011;64561;44.018;10.144;2023-05-16T13:20:07;0.10;;;0.10;;
75885;SDS011;64561;44.018;10.144;2023-05-16T13:22:35;0.30;;;0.20;;
75885;SDS011;64561;44.018;10.144;2023-05-16T13:25:03;0.10;;;0.10;;
75885;SDS011;64561;44.018;10.144;2023-05-16T13:27:31;0.30;;;0.13;;
75885;SDS011;64561;44.018;10.144;2023-05-16T13:29:59;0.28;;;0.15;;
75885;SDS011;64561;44.018;10.144;2023-05-16T13:32:26;0.30;;;0.30;;
75885;SDS011;64561;44.018;10.144;2023-05-16T13:34:53;0.10;;;0.10;;
75885;SDS011;64561;44.018;10.144;2023-05-16T13:37:20;0.10;;;0.05;;
75885;SDS011;64561;44.018;10.144;2023-05-16T13:39:49;0.17;;;0.13;;
75885;SDS011;64561;44.018;10.144;2023-05-16T13:42:16;0.32;;;0.30;;
75885;SDS011;64561;44.018;10.144;2023-05-16T13:44:43;0.55;;;0.30;;
75885;SDS011;64561;44.018;10.144;2023-05-16T13:47:10;0.98;;;0.68;;
75885;SDS011;64561;44.018;10.144;2023-05-16T13:49:37;0.52;;;0.30;;
75885;SDS011;64561;44.018;10.144;2023-05-16T13:52:04;0.10;;;0.10;;
75885;SDS011;64561;44.018;10.144;2023-05-16T13:54:32;0.57;;;0.20;;
75885;SDS011;64561;44.018;10.144;2023-05-16T13:56:59;1.08;;;0.30;;
75885;SDS011;64561;44.018;10.144;2023-05-16T13:59:27;1.13;;;0.40;;
75885;SDS011;64561;44.018;10.144;2023-05-16T14:02:14;0.20;;;0.20;;
75885;SDS011;64561;44.018;10.144;2023-05-16T14:04:41;1.10;;;0.43;;
75885;SDS011;64561;44.018;10.144;2023-05-16T14:07:08;0.55;;;0.30;;
75885;SDS011;64561;44.018;10.144;2023-05-16T14:09:35;1.20;;;0.47;;
75885;SDS011;64561;44.018;10.144;2023-05-16T14:12:07;0.35;;;0.30;;
75885;SDS011;64561;44.018;10.144;2023-05-16T14:14:35;0.50;;;0.45;;
75885;SDS011;64561;44.018;10.144;2023-05-16T14:17:02;0.10;;;0.10;;
75885;SDS011;64561;44.018;10.144;2023-05-16T14:19:29;2.08;;;0.40;;
75885;SDS011;64561;44.018;10.144;2023-05-16T14:21:57;1.33;;;0.73;;
75885;SDS011;64561;44.018;10.144;2023-05-16T14:24:24;1.35;;;0.90;;
75885;SDS011;64561;44.018;10.144;2023-05-16T14:26:50;2.47;;;0.93;;
75885;SDS011;64561;44.018;10.144;2023-05-16T14:29:23;2.63;;;1.30;;
75885;SDS011;64561;44.018;10.144;2023-05-16T14:31:51;1.75;;;0.85;;
75885;SDS011;64561;44.018;10.144;2023-05-16T14:34:19;1.33;;;0.88;;
75885;SDS011;64561;44.018;10.144;2023-05-16T14:36:48;1.33;;;0.70;;
75885;SDS011;64561;44.018;10.144;2023-05-16T14:39:15;0.82;;;0.65;;
75885;SDS011;64561;44.018;10.144;2023-05-16T14:41:42;0.60;;;0.40;;
75885;SDS011;64561;44.018;10.144;2023-05-16T14:44:09;0.30;;;0.30;;
75885;SDS011;64561;44.018;10.144;2023-05-16T14:46:35;1.95;;;0.57;;
75885;SDS011;64561;44.018;10.144;2023-05-16T14:49:02;1.42;;;0.40;;
75885;SDS011;64561;44.018;10.144;2023-05-16T14:51:29;0.30;;;0.17;;
75885;SDS011;64561;44.018;10.144;2023-05-16T14:53:57;0.30;;;0.30;;
75885;SDS011;64561;44.018;10.144;2023-05-16T14:56:24;1.27;;;0.35;;
75885;SDS011;64561;44.018;10.144;2023-05-16T14:58:53;1.85;;;1.20;;
75885;SDS011;64561;44.018;10.144;2023-05-16T15:01:20;0.98;;;0.52;;
75885;SDS011;64561;44.018;10.144;2023-05-16T15:03:48;1.27;;;0.60;;
75885;SDS011;64561;44.018;10.144;2023-05-16T15:06:22;1.20;;;0.52;;
75885;SDS011;64561;44.018;10.144;2023-05-16T15:08:50;1.35;;;0.63;;